sensor_id;sensor_type;location;lat;lon;timestamp;P1;durP1;ratioP1;P2;durP2;ratioP2
48076;SDS011;33854;57.708;12.008;2023-05-29T00:01:50;17.43;;;4.80;;
48076;SDS011;33854;57.708;12.008;2023-05-29T00:04:16;17.15;;;3.97;;
48076;SDS011;33854;57.708;12.008;2023-05-29T00:06:41;21.23;;;4.07;;
48076;SDS011;33854;57.708;12.008;2023-05-29T00:09:07;19.30;;;4.13;;
48076;SDS011;33854;57.708;12.008;2023-05-29T00:11:32;28.63;;;4.53;;
48076;SDS011;33854;57.708;12.008;2023-05-29T00:13:58;21.33;;;4.07;;
48076;SDS011;33854;57.708;12.008;2023-05-29T00:16:24;18.23;;;3.87;;
48076;SDS011;33854;57.708;12.008;2023-05-29T00:18:50;27.17;;;4.10;;
48076;SDS011;33854;57.708;12.008;2023-05-29T00:21:17;25.83;;;4.13;;
48076;SDS011;33854;57.708;12.008;2023-05-29T00:23:42;23.60;;;4.30;;
48076;SDS011;33854;57.708;12.008;2023-05-29T00:26:08;22.97;;;3.70;;
48076;SDS011;33854;57.708;12.008;2023-05-29T00:28:34;29.37;;;4.70;;
48076;SDS011;33854;57.708;12.008;2023-05-29T00:31:01;20.90;;;3.95;;
48076;SDS011;33854;57.708;12.008;2023-05-29T00:33:27;20.43;;;4.63;;
48076;SDS011;33854;57.708;12.008;2023-05-29T00:35:52;18.20;;;3.90;;
48076;SDS011;33854;57.708;12.008;2023-05-29T00:38:18;21.03;;;4.13;;
48076;SDS011;33854;57.708;12.008;2023-05-29T00:40:43;20.50;;;3.83;;
48076;SDS011;33854;57.708;12.008;2023-05-29T00:43:09;20.37;;;3.67;;
48076;SDS011;33854;57.708;12.008;2023-05-29T00:45:34;28.23;;;4.37;;
48076;SDS011;33854;57.708;12.008;2023-05-29T00:48:02;27.25;;;4.22;;
48076;SDS011;33854;57.708;12.008;2023-05-29T00:50:28;18.70;;;3.65;;
48076;SDS011;33854;57.708;12.008;2023-05-29T00:52:54;15.88;;;3.58;;
48076;SDS011;33854;57.708;12.008;2023-05-29T00:55:20;17.43;;;3.97;;
48076;SDS011;33854;57.708;12.008;2023-05-29T00:57:46;21.53;;;4.60;;
48076;SDS011;33854;57.708;12.008;2023-05-29T01:00:12;18.98;;;4.18;;
48076;SDS011;33854;57.708;12.008;2023-05-29T01:02:42;21.90;;;4.22;;
48076;SDS011;33854;57.708;12.008;2023-05-29T01:05:10;13.20;;;3.65;;
48076;SDS011;33854;57.708;12.008;2023-05-29T01:07:36;20.55;;;4.25;;
48076;SDS011;33854;57.708;12.008;2023-05-29T01:10:02;19.60;;;4.70;;
48076;SDS011;33854;57.708;12.008;2023-05-29T01:23:31;24.63;;;4.65;;
48076;SDS011;33854;57.708;12.008;2023-05-29T01:29:02;18.25;;;3.97;;
48076;SDS011;33854;57.708;12.008;2023-05-29T01:31:31;19.02;;;3.60;;
48076;SDS011;33854;57.708;12.008;2023-05-29T01:33:59;17.50;;;3.92;;
48076;SDS011;33854;57.708;12.008;2023-05-29T01:36:25;19.40;;;3.17;;
48076;SDS011;33854;57.708;12.008;2023-05-29T01:38:52;19.13;;;4.23;;
48076;SDS011;33854;57.708;12.008;2023-05-29T01:41:20;18.67;;;3.60;;
48076;SDS011;33854;57.708;12.008;2023-05-29T01:43:48;15.02;;;3.75;;
48076;SDS011;33854;57.708;12.008;2023-05-29T01:48:44;18.52;;;3.80;;
48076;SDS011;33854;57.708;12.008;2023-05-29T01:51:11;21.38;;;3.95;;
48076;SDS011;33854;57.708;12.008;2023-05-29T01:53:38;18.05;;;4.03;;
48076;SDS011;33854;57.708;12.008;2023-05-29T01:56:04;17.75;;;3.53;;
48076;SDS011;33854;57.708;12.008;2023-05-29T01:58:31;18.42;;;3.80;;
48076;SDS011;33854;57.708;12.008;2023-05-29T02:00:57;22.13;;;3.40;;
48076;SDS011;33854;57.708;12.008;2023-05-29T02:03:23;14.20;;;3.63;;
48076;SDS011;33854;57.708;12.008;2023-05-29T02:05:48;15.17;;;3.33;;
48076;SDS011;33854;57.708;12.008;2023-05-29T02:08:14;13.73;;;3.00;;
48076;SDS011;33854;57.708;12.008;2023-05-29T02:10:39;14.60;;;3.00;;
48076;SDS011;33854;57.708;12.008;2023-05-29T02:13:05;19.93;;;3.83;;
48076;SDS011;33854;57.708;12.008;2023-05-29T02:15:30;10.50;;;3.03;;
48076;SDS011;33854;57.708;12.008;2023-05-29T02:17:56;15.10;;;3.23;;
48076;SDS011;33854;57.708;12.008;2023-05-29T02:20:22;10.95;;;3.08;;
48076;SDS011;33854;57.708;12.008;2023-05-29T02:22:48;14.05;;;3.30;;
48076;SDS011;33854;57.708;12.008;2023-05-29T02:25:14;17.37;;;3.97;;
48076;SDS011;33854;57.708;12.008;2023-05-29T02:27:39;16.67;;;3.73;;
48076;SDS011;33854;57.708;12.008;2023-05-29T02:30:05;12.27;;;2.27;;
48076;SDS011;33854;57.708;12.008;2023-05-29T02:32:31;9.32;;;2.97;;
48076;SDS011;33854;57.708;12.008;2023-05-29T02:34:57;13.73;;;3.40;;
48076;SDS011;33854;57.708;12.008;2023-05-29T02:37:23;15.97;;;3.00;;
48076;SDS011;33854;57.708;12.008;2023-05-29T02:39:51;10.73;;;2.90;;
48076;SDS011;33854;57.708;12.008;2023-05-29T02:42:17;17.13;;;2.83;;
48076;SDS011;33854;57.708;12.008;2023-05-29T02:44:42;16.33;;;3.00;;
48076;SDS011;33854;57.708;12.008;2023-05-29T02:47:07;13.43;;;3.77;;
48076;SDS011;33854;57.708;12.008;2023-05-29T02:49:33;11.03;;;2.63;;
48076;SDS011;33854;57.708;12.008;2023-05-29T02:51:58;12.53;;;3.37;;
48076;SDS011;33854;57.708;12.008;2023-05-29T02:54:24;12.20;;;2.40;;
48076;SDS011;33854;57.708;12.008;2023-05-29T02:56:50;11.60;;;2.92;;
48076;SDS011;33854;57.708;12.008;2023-05-29T02:59:16;11.57;;;3.00;;
48076;SDS011;33854;57.708;12.008;2023-05-29T03:01:41;13.17;;;3.53;;
48076;SDS011;33854;57.708;12.008;2023-05-29T03:04:08;12.20;;;3.10;;
48076;SDS011;33854;57.708;12.008;2023-05-29T03:06:36;13.23;;;3.05;;
48076;SDS011;33854;57.708;12.008;2023-05-29T03:09:04;12.67;;;3.30;;
48076;SDS011;33854;57.708;12.008;2023-05-29T03:11:30;10.88;;;2.55;;
48076;SDS011;33854;57.708;12.008;2023-05-29T03:13:58;12.73;;;2.42;;
48076;SDS011;33854;57.708;12.008;2023-05-29T03:16:23;11.20;;;2.85;;
48076;SDS011;33854;57.708;12.008;2023-05-29T03:18:50;12.15;;;2.53;;
48076;SDS011;33854;57.708;12.008;2023-05-29T03:21:15;11.33;;;3.80;;
48076;SDS011;33854;57.708;12.008;2023-05-29T03:23:41;8.97;;;3.00;;
48076;SDS011;33854;57.708;12.008;2023-05-29T03:26:06;12.57;;;2.53;;
48076;SDS011;33854;57.708;12.008;2023-05-29T03:28:32;14.63;;;3.50;;
48076;SDS011;33854;57.708;12.008;2023-05-29T03:30:57;16.13;;;2.90;;
48076;SDS011;33854;57.708;12.008;2023-05-29T03:33:23;11.67;;;2.93;;
48076;SDS011;33854;57.708;12.008;2023-05-29T03:35:48;13.50;;;3.00;;
48076;SDS011;33854;57.708;12.008;2023-05-29T03:38:13;10.23;;;2.80;;
48076;SDS011;33854;57.708;12.008;2023-05-29T03:40:39;11.40;;;2.77;;
48076;SDS011;33854;57.708;12.008;2023-05-29T03:43:04;12.10;;;2.67;;
48076;SDS011;33854;57.708;12.008;2023-05-29T03:45:30;10.97;;;3.37;;
48076;SDS011;33854;57.708;12.008;2023-05-29T03:47:55;11.27;;;3.07;;
48076;SDS011;33854;57.708;12.008;2023-05-29T03:50:21;12.73;;;3.20;;
48076;SDS011;33854;57.708;12.008;2023-05-29T03:52:46;14.10;;;3.40;;
48076;SDS011;33854;57.708;12.008;2023-05-29T03:55:12;55.87;;;25.57;;
48076;SDS011;33854;57.708;12.008;2023-05-29T03:57:38;24.95;;;5.70;;
48076;SDS011;33854;57.708;12.008;2023-05-29T04:00:06;16.23;;;5.13;;
48076;SDS011;33854;57.708;12.008;2023-05-29T04:02:33;10.93;;;3.20;;
48076;SDS011;33854;57.708;12.008;2023-05-29T04:04:58;12.23;;;2.80;;
48076;SDS011;33854;57.708;12.008;2023-05-29T04:07:23;9.23;;;2.30;;
48076;SDS011;33854;57.708;12.008;2023-05-29T04:09:49;14.17;;;3.23;;
48076;SDS011;33854;57.708;12.008;2023-05-29T04:12:14;12.23;;;3.17;;
48076;SDS011;33854;57.708;12.008;2023-05-29T04:14:41;13.57;;;3.28;;
48076;SDS011;33854;57.708;12.008;2023-05-29T04:17:07;40.47;;;22.20;;
48076;SDS011;33854;57.708;12.008;2023-05-29T04:19:32;12.37;;;3.50;;
48076;SDS011;33854;57.708;12.008;2023-05-29T04:21:58;11.63;;;3.13;;
48076;SDS011;33854;57.708;12.008;2023-05-29T04:24:23;13.77;;;3.47;;
48076;SDS011;33854;57.708;12.008;2023-05-29T04:26:49;17.85;;;4.10;;
48076;SDS011;33854;57.708;12.008;2023-05-29T04:31:42;9.63;;;2.05;;
48076;SDS011;33854;57.708;12.008;2023-05-29T04:34:07;13.60;;;2.10;;
48076;SDS011;33854;57.708;12.008;2023-05-29T04:36:33;5.03;;;1.70;;
48076;SDS011;33854;57.708;12.008;2023-05-29T04:39:03;10.88;;;2.58;;
48076;SDS011;33854;57.708;12.008;2023-05-29T04:41:30;10.02;;;2.70;;
48076;SDS011;33854;57.708;12.008;2023-05-29T04:43:56;7.10;;;1.77;;
48076;SDS011;33854;57.708;12.008;2023-05-29T04:46:25;6.03;;;1.40;;
48076;SDS011;33854;57.708;12.008;2023-05-29T04:48:51;7.07;;;1.73;;
48076;SDS011;33854;57.708;12.008;2023-05-29T04:51:22;5.18;;;1.90;;
48076;SDS011;33854;57.708;12.008;2023-05-29T04:53:48;4.63;;;1.48;;
48076;SDS011;33854;57.708;12.008;2023-05-29T04:56:16;6.03;;;1.80;;
48076;SDS011;33854;57.708;12.008;2023-05-29T04:58:43;6.53;;;1.30;;
48076;SDS011;33854;57.708;12.008;2023-05-29T05:01:08;7.53;;;2.43;;
48076;SDS011;33854;57.708;12.008;2023-05-29T05:03:34;6.93;;;1.83;;
48076;SDS011;33854;57.708;12.008;2023-05-29T05:06:01;5.78;;;1.63;;
48076;SDS011;33854;57.708;12.008;2023-05-29T05:08:31;4.00;;;1.17;;
48076;SDS011;33854;57.708;12.008;2023-05-29T05:13:23;5.47;;;1.42;;
48076;SDS011;33854;57.708;12.008;2023-05-29T05:15:49;2.27;;;1.10;;
48076;SDS011;33854;57.708;12.008;2023-05-29T05:18:14;1.93;;;0.97;;
48076;SDS011;33854;57.708;12.008;2023-05-29T05:20:40;2.20;;;0.80;;
48076;SDS011;33854;57.708;12.008;2023-05-29T05:23:05;2.20;;;1.10;;
48076;SDS011;33854;57.708;12.008;2023-05-29T05:25:31;3.93;;;2.37;;
48076;SDS011;33854;57.708;12.008;2023-05-29T05:27:58;7.60;;;2.47;;
48076;SDS011;33854;57.708;12.008;2023-05-29T05:30:23;3.10;;;1.20;;
48076;SDS011;33854;57.708;12.008;2023-05-29T05:32:48;2.40;;;0.73;;
48076;SDS011;33854;57.708;12.008;2023-05-29T05:35:14;1.70;;;0.70;;
48076;SDS011;33854;57.708;12.008;2023-05-29T05:37:40;1.55;;;0.80;;
48076;SDS011;33854;57.708;12.008;2023-05-29T05:40:06;3.07;;;1.00;;
48076;SDS011;33854;57.708;12.008;2023-05-29T05:42:33;0.77;;;0.60;;
48076;SDS011;33854;57.708;12.008;2023-05-29T05:44:59;2.37;;;0.80;;
48076;SDS011;33854;57.708;12.008;2023-05-29T05:47:24;2.63;;;0.77;;
48076;SDS011;33854;57.708;12.008;2023-05-29T05:49:50;2.10;;;0.57;;
48076;SDS011;33854;57.708;12.008;2023-05-29T05:52:17;1.90;;;0.80;;
48076;SDS011;33854;57.708;12.008;2023-05-29T05:54:43;1.38;;;0.68;;
48076;SDS011;33854;57.708;12.008;2023-05-29T05:57:08;5.30;;;0.77;;
48076;SDS011;33854;57.708;12.008;2023-05-29T05:59:34;4.03;;;1.10;;
48076;SDS011;33854;57.708;12.008;2023-05-29T06:01:59;1.13;;;0.57;;
48076;SDS011;33854;57.708;12.008;2023-05-29T06:04:25;1.37;;;0.60;;
48076;SDS011;33854;57.708;12.008;2023-05-29T06:06:51;0.37;;;0.30;;
48076;SDS011;33854;57.708;12.008;2023-05-29T06:09:16;1.17;;;0.50;;
48076;SDS011;33854;57.708;12.008;2023-05-29T06:11:42;1.23;;;0.90;;
48076;SDS011;33854;57.708;12.008;2023-05-29T06:14:07;1.07;;;0.73;;
48076;SDS011;33854;57.708;12.008;2023-05-29T06:16:32;0.87;;;0.70;;
48076;SDS011;33854;57.708;12.008;2023-05-29T06:18:58;1.90;;;0.80;;
48076;SDS011;33854;57.708;12.008;2023-05-29T06:21:23;11.70;;;0.90;;
48076;SDS011;33854;57.708;12.008;2023-05-29T06:23:49;2.47;;;0.80;;
48076;SDS011;33854;57.708;12.008;2023-05-29T06:26:14;1.10;;;0.50;;
48076;SDS011;33854;57.708;12.008;2023-05-29T06:28:41;8.40;;;4.35;;
48076;SDS011;33854;57.708;12.008;2023-05-29T06:31:06;7.50;;;1.80;;
48076;SDS011;33854;57.708;12.008;2023-05-29T06:33:32;2.40;;;0.80;;
48076;SDS011;33854;57.708;12.008;2023-05-29T06:35:57;2.20;;;0.70;;
48076;SDS011;33854;57.708;12.008;2023-05-29T06:38:23;2.37;;;0.70;;
48076;SDS011;33854;57.708;12.008;2023-05-29T06:40:48;0.80;;;0.80;;
48076;SDS011;33854;57.708;12.008;2023-05-29T06:43:13;2.70;;;0.73;;
48076;SDS011;33854;57.708;12.008;2023-05-29T06:45:39;1.37;;;0.60;;
48076;SDS011;33854;57.708;12.008;2023-05-29T06:48:05;1.27;;;0.70;;
48076;SDS011;33854;57.708;12.008;2023-05-29T06:50:31;0.93;;;0.47;;
48076;SDS011;33854;57.708;12.008;2023-05-29T06:52:56;1.80;;;0.60;;
48076;SDS011;33854;57.708;12.008;2023-05-29T06:55:22;0.77;;;0.70;;
48076;SDS011;33854;57.708;12.008;2023-05-29T06:57:47;0.83;;;0.70;;
48076;SDS011;33854;57.708;12.008;2023-05-29T07:00:13;2.23;;;0.83;;
48076;SDS011;33854;57.708;12.008;2023-05-29T07:02:39;1.65;;;0.65;;
48076;SDS011;33854;57.708;12.008;2023-05-29T07:05:04;1.00;;;0.60;;
48076;SDS011;33854;57.708;12.008;2023-05-29T07:07:30;3.30;;;0.80;;
48076;SDS011;33854;57.708;12.008;2023-05-29T07:09:56;3.17;;;0.60;;
48076;SDS011;33854;57.708;12.008;2023-05-29T07:12:22;2.07;;;0.70;;
48076;SDS011;33854;57.708;12.008;2023-05-29T07:14:48;4.13;;;0.45;;
48076;SDS011;33854;57.708;12.008;2023-05-29T07:17:14;3.73;;;0.80;;
48076;SDS011;33854;57.708;12.008;2023-05-29T07:19:40;2.88;;;0.60;;
48076;SDS011;33854;57.708;12.008;2023-05-29T07:22:06;2.50;;;0.63;;
48076;SDS011;33854;57.708;12.008;2023-05-29T07:24:31;3.00;;;0.70;;
48076;SDS011;33854;57.708;12.008;2023-05-29T07:26:57;3.20;;;0.50;;
48076;SDS011;33854;57.708;12.008;2023-05-29T07:29:22;2.33;;;0.73;;
48076;SDS011;33854;57.708;12.008;2023-05-29T07:31:51;1.27;;;0.80;;
48076;SDS011;33854;57.708;12.008;2023-05-29T07:34:17;0.98;;;0.65;;
48076;SDS011;33854;57.708;12.008;2023-05-29T07:36:55;4.77;;;0.70;;
48076;SDS011;33854;57.708;12.008;2023-05-29T07:39:32;2.15;;;0.45;;
48076;SDS011;33854;57.708;12.008;2023-05-29T07:41:58;0.85;;;0.45;;
48076;SDS011;33854;57.708;12.008;2023-05-29T07:44:26;1.55;;;0.82;;
48076;SDS011;33854;57.708;12.008;2023-05-29T07:46:51;1.30;;;0.50;;
48076;SDS011;33854;57.708;12.008;2023-05-29T07:49:17;1.40;;;0.50;;
48076;SDS011;33854;57.708;12.008;2023-05-29T07:51:42;3.20;;;0.80;;
48076;SDS011;33854;57.708;12.008;2023-05-29T07:54:08;1.63;;;0.53;;
48076;SDS011;33854;57.708;12.008;2023-05-29T07:56:33;2.73;;;0.83;;
48076;SDS011;33854;57.708;12.008;2023-05-29T07:58:59;1.20;;;0.50;;
48076;SDS011;33854;57.708;12.008;2023-05-29T08:01:26;2.15;;;0.63;;
48076;SDS011;33854;57.708;12.008;2023-05-29T08:03:52;3.65;;;0.70;;
48076;SDS011;33854;57.708;12.008;2023-05-29T08:06:18;3.60;;;0.40;;
48076;SDS011;33854;57.708;12.008;2023-05-29T08:08:43;3.28;;;0.38;;
48076;SDS011;33854;57.708;12.008;2023-05-29T08:11:09;3.53;;;0.33;;
48076;SDS011;33854;57.708;12.008;2023-05-29T08:13:35;3.85;;;0.60;;
48076;SDS011;33854;57.708;12.008;2023-05-29T08:16:01;5.83;;;1.53;;
48076;SDS011;33854;57.708;12.008;2023-05-29T08:18:27;1.42;;;0.60;;
48076;SDS011;33854;57.708;12.008;2023-05-29T08:20:55;3.28;;;0.73;;
48076;SDS011;33854;57.708;12.008;2023-05-29T08:23:21;1.60;;;0.43;;
48076;SDS011;33854;57.708;12.008;2023-05-29T08:25:46;1.67;;;0.50;;
48076;SDS011;33854;57.708;12.008;2023-05-29T08:28:12;1.33;;;0.80;;
48076;SDS011;33854;57.708;12.008;2023-05-29T08:30:39;2.92;;;0.40;;
48076;SDS011;33854;57.708;12.008;2023-05-29T08:33:04;1.83;;;1.03;;
48076;SDS011;33854;57.708;12.008;2023-05-29T08:35:29;2.80;;;0.63;;
48076;SDS011;33854;57.708;12.008;2023-05-29T08:37:55;5.93;;;0.70;;
48076;SDS011;33854;57.708;12.008;2023-05-29T08:40:21;1.77;;;0.87;;
48076;SDS011;33854;57.708;12.008;2023-05-29T08:42:47;1.90;;;0.80;;
48076;SDS011;33854;57.708;12.008;2023-05-29T08:45:21;5.38;;;0.68;;
48076;SDS011;33854;57.708;12.008;2023-05-29T08:47:52;3.05;;;0.88;;
48076;SDS011;33854;57.708;12.008;2023-05-29T08:50:21;5.30;;;0.90;;
48076;SDS011;33854;57.708;12.008;2023-05-29T08:52:48;3.55;;;0.80;;
48076;SDS011;33854;57.708;12.008;2023-05-29T08:55:14;9.63;;;1.10;;
48076;SDS011;33854;57.708;12.008;2023-05-29T08:57:39;1.33;;;0.70;;
48076;SDS011;33854;57.708;12.008;2023-05-29T09:00:07;3.88;;;0.80;;
48076;SDS011;33854;57.708;12.008;2023-05-29T09:02:43;0.30;;;0.30;;
48076;SDS011;33854;57.708;12.008;2023-05-29T09:05:09;0.88;;;0.40;;
48076;SDS011;33854;57.708;12.008;2023-05-29T09:07:35;1.10;;;0.40;;
48076;SDS011;33854;57.708;12.008;2023-05-29T09:10:05;2.25;;;0.50;;
48076;SDS011;33854;57.708;12.008;2023-05-29T09:12:32;1.60;;;0.38;;
48076;SDS011;33854;57.708;12.008;2023-05-29T09:14:58;1.90;;;0.28;;
48076;SDS011;33854;57.708;12.008;2023-05-29T09:17:24;1.00;;;0.70;;
48076;SDS011;33854;57.708;12.008;2023-05-29T09:19:55;2.38;;;0.50;;
48076;SDS011;33854;57.708;12.008;2023-05-29T09:22:20;3.77;;;0.50;;
48076;SDS011;33854;57.708;12.008;2023-05-29T09:24:46;2.20;;;0.40;;
48076;SDS011;33854;57.708;12.008;2023-05-29T09:27:13;4.45;;;0.57;;
48076;SDS011;33854;57.708;12.008;2023-05-29T09:29:40;3.60;;;0.63;;
48076;SDS011;33854;57.708;12.008;2023-05-29T09:32:25;0.40;;;0.30;;
48076;SDS011;33854;57.708;12.008;2023-05-29T09:34:59;2.95;;;0.70;;
48076;SDS011;33854;57.708;12.008;2023-05-29T09:37:25;0.55;;;0.40;;
48076;SDS011;33854;57.708;12.008;2023-05-29T09:39:51;2.77;;;0.70;;
48076;SDS011;33854;57.708;12.008;2023-05-29T09:42:16;0.60;;;0.60;;
48076;SDS011;33854;57.708;12.008;2023-05-29T09:44:43;1.85;;;0.40;;
48076;SDS011;33854;57.708;12.008;2023-05-29T09:47:18;1.50;;;0.40;;
48076;SDS011;33854;57.708;12.008;2023-05-29T09:49:44;1.73;;;0.52;;
48076;SDS011;33854;57.708;12.008;2023-05-29T09:52:11;0.75;;;0.50;;
48076;SDS011;33854;57.708;12.008;2023-05-29T09:54:41;1.63;;;0.50;;
48076;SDS011;33854;57.708;12.008;2023-05-29T09:57:12;0.50;;;0.50;;
48076;SDS011;33854;57.708;12.008;2023-05-29T09:59:40;4.38;;;0.60;;
48076;SDS011;33854;57.708;12.008;2023-05-29T10:02:09;0.47;;;0.40;;
48076;SDS011;33854;57.708;12.008;2023-05-29T10:04:37;3.80;;;0.40;;
48076;SDS011;33854;57.708;12.008;2023-05-29T10:09:45;2.95;;;0.43;;
48076;SDS011;33854;57.708;12.008;2023-05-29T10:12:15;3.60;;;0.50;;
48076;SDS011;33854;57.708;12.008;2023-05-29T10:14:49;0.77;;;0.40;;
48076;SDS011;33854;57.708;12.008;2023-05-29T10:17:15;0.40;;;0.20;;
48076;SDS011;33854;57.708;12.008;2023-05-29T10:19:48;8.45;;;1.05;;
48076;SDS011;33854;57.708;12.008;2023-05-29T10:22:16;0.80;;;0.50;;
48076;SDS011;33854;57.708;12.008;2023-05-29T10:24:45;2.10;;;0.40;;
48076;SDS011;33854;57.708;12.008;2023-05-29T10:27:13;1.60;;;0.52;;
48076;SDS011;33854;57.708;12.008;2023-05-29T10:29:50;1.30;;;0.60;;
48076;SDS011;33854;57.708;12.008;2023-05-29T10:32:36;0.77;;;0.45;;
48076;SDS011;33854;57.708;12.008;2023-05-29T10:35:22;3.38;;;0.70;;
48076;SDS011;33854;57.708;12.008;2023-05-29T10:38:15;1.90;;;0.30;;
48076;SDS011;33854;57.708;12.008;2023-05-29T10:40:44;2.63;;;0.50;;
48076;SDS011;33854;57.708;12.008;2023-05-29T10:46:07;1.08;;;0.43;;
48076;SDS011;33854;57.708;12.008;2023-05-29T10:48:35;2.47;;;0.43;;
48076;SDS011;33854;57.708;12.008;2023-05-29T10:51:05;3.70;;;0.68;;
48076;SDS011;33854;57.708;12.008;2023-05-29T10:53:34;2.63;;;0.50;;
48076;SDS011;33854;57.708;12.008;2023-05-29T10:56:05;3.00;;;0.30;;
48076;SDS011;33854;57.708;12.008;2023-05-29T10:58:34;1.08;;;0.57;;
48076;SDS011;33854;57.708;12.008;2023-05-29T11:00:59;3.93;;;0.80;;
48076;SDS011;33854;57.708;12.008;2023-05-29T11:03:29;2.40;;;0.40;;
48076;SDS011;33854;57.708;12.008;2023-05-29T11:08:28;1.57;;;0.30;;
48076;SDS011;33854;57.708;12.008;2023-05-29T11:11:01;3.00;;;0.65;;
48076;SDS011;33854;57.708;12.008;2023-05-29T11:13:31;2.22;;;0.50;;
48076;SDS011;33854;57.708;12.008;2023-05-29T11:16:18;5.00;;;0.40;;
48076;SDS011;33854;57.708;12.008;2023-05-29T11:18:51;1.75;;;0.52;;
48076;SDS011;33854;57.708;12.008;2023-05-29T11:24:22;0.47;;;0.47;;
48076;SDS011;33854;57.708;12.008;2023-05-29T11:26:50;0.65;;;0.40;;
48076;SDS011;33854;57.708;12.008;2023-05-29T11:29:20;1.75;;;0.40;;
48076;SDS011;33854;57.708;12.008;2023-05-29T11:34:29;3.20;;;0.40;;
48076;SDS011;33854;57.708;12.008;2023-05-29T11:36:59;5.78;;;0.57;;
48076;SDS011;33854;57.708;12.008;2023-05-29T11:39:26;1.55;;;0.68;;
48076;SDS011;33854;57.708;12.008;2023-05-29T11:41:51;3.47;;;0.90;;
48076;SDS011;33854;57.708;12.008;2023-05-29T11:44:20;1.95;;;0.50;;
48076;SDS011;33854;57.708;12.008;2023-05-29T11:46:46;2.30;;;0.50;;
48076;SDS011;33854;57.708;12.008;2023-05-29T11:49:11;3.05;;;0.40;;
48076;SDS011;33854;57.708;12.008;2023-05-29T11:51:37;4.50;;;0.43;;
48076;SDS011;33854;57.708;12.008;2023-05-29T11:54:02;1.93;;;0.60;;
48076;SDS011;33854;57.708;12.008;2023-05-29T11:56:28;1.17;;;0.43;;
48076;SDS011;33854;57.708;12.008;2023-05-29T11:58:55;1.02;;;0.40;;
48076;SDS011;33854;57.708;12.008;2023-05-29T12:01:26;2.08;;;0.60;;
48076;SDS011;33854;57.708;12.008;2023-05-29T12:03:52;4.82;;;0.40;;
48076;SDS011;33854;57.708;12.008;2023-05-29T12:06:36;3.67;;;0.60;;
48076;SDS011;33854;57.708;12.008;2023-05-29T12:09:03;3.60;;;0.50;;
48076;SDS011;33854;57.708;12.008;2023-05-29T12:13:58;0.90;;;0.40;;
48076;SDS011;33854;57.708;12.008;2023-05-29T12:16:27;1.50;;;0.40;;
48076;SDS011;33854;57.708;12.008;2023-05-29T12:18:56;3.47;;;0.52;;
48076;SDS011;33854;57.708;12.008;2023-05-29T12:21:22;3.50;;;0.50;;
48076;SDS011;33854;57.708;12.008;2023-05-29T12:23:51;2.63;;;0.47;;
48076;SDS011;33854;57.708;12.008;2023-05-29T12:26:23;2.08;;;0.50;;
48076;SDS011;33854;57.708;12.008;2023-05-29T12:28:51;1.15;;;0.43;;
48076;SDS011;33854;57.708;12.008;2023-05-29T12:31:28;4.70;;;0.45;;
48076;SDS011;33854;57.708;12.008;2023-05-29T12:33:58;3.60;;;0.30;;
48076;SDS011;33854;57.708;12.008;2023-05-29T12:36:27;1.00;;;0.90;;
48076;SDS011;33854;57.708;12.008;2023-05-29T12:38:53;5.83;;;0.50;;
48076;SDS011;33854;57.708;12.008;2023-05-29T12:43:52;0.77;;;0.43;;
48076;SDS011;33854;57.708;12.008;2023-05-29T12:46:18;2.85;;;0.50;;
48076;SDS011;33854;57.708;12.008;2023-05-29T12:48:44;6.70;;;0.97;;
48076;SDS011;33854;57.708;12.008;2023-05-29T12:51:09;2.13;;;0.77;;
48076;SDS011;33854;57.708;12.008;2023-05-29T12:53:35;4.80;;;0.60;;
48076;SDS011;33854;57.708;12.008;2023-05-29T12:56:00;1.07;;;0.40;;
48076;SDS011;33854;57.708;12.008;2023-05-29T12:58:26;3.13;;;0.47;;
48076;SDS011;33854;57.708;12.008;2023-05-29T13:00:53;1.58;;;0.60;;
48076;SDS011;33854;57.708;12.008;2023-05-29T13:03:20;1.38;;;0.52;;
48076;SDS011;33854;57.708;12.008;2023-05-29T13:05:48;3.83;;;0.70;;
48076;SDS011;33854;57.708;12.008;2023-05-29T13:08:15;4.38;;;0.57;;
48076;SDS011;33854;57.708;12.008;2023-05-29T13:10:40;1.13;;;0.50;;
48076;SDS011;33854;57.708;12.008;2023-05-29T13:13:06;1.60;;;0.40;;
48076;SDS011;33854;57.708;12.008;2023-05-29T13:15:31;3.00;;;0.70;;
48076;SDS011;33854;57.708;12.008;2023-05-29T13:17:58;2.30;;;0.57;;
48076;SDS011;33854;57.708;12.008;2023-05-29T13:20:24;1.67;;;0.60;;
48076;SDS011;33854;57.708;12.008;2023-05-29T13:22:50;3.92;;;0.47;;
48076;SDS011;33854;57.708;12.008;2023-05-29T13:25:16;2.23;;;0.60;;
48076;SDS011;33854;57.708;12.008;2023-05-29T13:27:46;3.95;;;0.50;;
48076;SDS011;33854;57.708;12.008;2023-05-29T13:30:15;1.48;;;0.63;;
48076;SDS011;33854;57.708;12.008;2023-05-29T13:32:41;2.92;;;0.70;;
48076;SDS011;33854;57.708;12.008;2023-05-29T13:35:07;4.43;;;0.68;;
48076;SDS011;33854;57.708;12.008;2023-05-29T13:37:33;5.22;;;0.73;;
48076;SDS011;33854;57.708;12.008;2023-05-29T13:40:01;4.90;;;0.77;;
48076;SDS011;33854;57.708;12.008;2023-05-29T13:42:26;4.17;;;0.80;;
48076;SDS011;33854;57.708;12.008;2023-05-29T13:44:52;2.60;;;0.50;;
48076;SDS011;33854;57.708;12.008;2023-05-29T13:47:18;2.20;;;0.40;;
48076;SDS011;33854;57.708;12.008;2023-05-29T13:49:43;2.07;;;0.50;;
48076;SDS011;33854;57.708;12.008;2023-05-29T13:52:09;2.93;;;0.63;;
48076;SDS011;33854;57.708;12.008;2023-05-29T13:54:34;1.90;;;0.90;;
48076;SDS011;33854;57.708;12.008;2023-05-29T13:57:04;2.20;;;0.85;;
48076;SDS011;33854;57.708;12.008;2023-05-29T13:59:31;1.30;;;0.70;;
48076;SDS011;33854;57.708;12.008;2023-05-29T14:06:48;5.03;;;0.47;;
48076;SDS011;33854;57.708;12.008;2023-05-29T14:09:14;3.40;;;0.90;;
48076;SDS011;33854;57.708;12.008;2023-05-29T14:11:39;2.27;;;0.63;;
48076;SDS011;33854;57.708;12.008;2023-05-29T14:14:05;1.60;;;0.52;;
48076;SDS011;33854;57.708;12.008;2023-05-29T14:16:31;1.65;;;0.82;;
48076;SDS011;33854;57.708;12.008;2023-05-29T14:23:49;2.47;;;0.70;;
48076;SDS011;33854;57.708;12.008;2023-05-29T14:26:14;1.90;;;0.53;;
48076;SDS011;33854;57.708;12.008;2023-05-29T14:28:40;9.00;;;0.83;;
48076;SDS011;33854;57.708;12.008;2023-05-29T14:31:06;2.92;;;0.88;;
48076;SDS011;33854;57.708;12.008;2023-05-29T14:33:31;3.80;;;0.50;;
48076;SDS011;33854;57.708;12.008;2023-05-29T14:35:57;2.45;;;0.68;;
48076;SDS011;33854;57.708;12.008;2023-05-29T14:43:14;1.67;;;0.70;;
48076;SDS011;33854;57.708;12.008;2023-05-29T14:45:40;2.90;;;0.67;;
48076;SDS011;33854;57.708;12.008;2023-05-29T14:48:05;2.53;;;0.80;;
48076;SDS011;33854;57.708;12.008;2023-05-29T14:50:31;1.97;;;0.60;;
48076;SDS011;33854;57.708;12.008;2023-05-29T14:52:56;3.17;;;0.80;;
48076;SDS011;33854;57.708;12.008;2023-05-29T14:55:22;0.93;;;0.53;;
48076;SDS011;33854;57.708;12.008;2023-05-29T14:57:47;1.97;;;0.60;;
48076;SDS011;33854;57.708;12.008;2023-05-29T15:00:13;1.37;;;0.60;;
48076;SDS011;33854;57.708;12.008;2023-05-29T15:02:39;3.83;;;0.50;;
48076;SDS011;33854;57.708;12.008;2023-05-29T15:05:05;2.37;;;0.47;;
48076;SDS011;33854;57.708;12.008;2023-05-29T15:07:32;1.45;;;0.60;;
48076;SDS011;33854;57.708;12.008;2023-05-29T15:10:01;1.83;;;0.70;;
48076;SDS011;33854;57.708;12.008;2023-05-29T15:12:27;2.83;;;0.43;;
48076;SDS011;33854;57.708;12.008;2023-05-29T15:14:54;1.80;;;0.95;;
48076;SDS011;33854;57.708;12.008;2023-05-29T15:17:19;1.10;;;0.70;;
48076;SDS011;33854;57.708;12.008;2023-05-29T15:19:45;0.67;;;0.40;;
48076;SDS011;33854;57.708;12.008;2023-05-29T15:22:10;3.00;;;0.70;;
48076;SDS011;33854;57.708;12.008;2023-05-29T15:24:36;2.03;;;0.53;;